Perezville, Texas
Current Conditions -  °F | °C
As of 1:53 AM on Saturday 20 Dec 2014 (Local Time) from KMFE Reporting Station
Overcast Overcast  
Wind Chill: 61°   Ceiling: 1700
Heat Index: 61°   Visibility: 10mi
Dew Point: 55°   Wind: 9mph
Humidity: 81%   Direction: 20°NNE
Pressure: 30.12"   Gusts: NA
Location:  26.2167°N, 98.325°W
Report Text: KMFE 200753Z AUTO 02008KT 10SM OVC017 16/13 A3012 RMK AO2 SLP198 T01610128
Loading
Personal Weather Stations






























Interactive Weather Map New forecast layout! Learn more

10-Day Weather Forecast

Advertisements
Track Severe Weather on mobile